sensor_id;sensor_type;location;lat;lon;timestamp;P1;durP1;ratioP1;P2;durP2;ratioP2
83103;SDS011;72975;48.134;11.630;2024-03-29T10:15:08;3.08;;;1.00;;
83103;SDS011;72975;48.134;11.630;2024-03-29T10:17:44;1.60;;;0.60;;
83103;SDS011;72975;48.134;11.630;2024-03-29T10:20:19;1.52;;;0.70;;
83103;SDS011;72975;48.134;11.630;2024-03-29T10:22:49;1.40;;;0.65;;
83103;SDS011;72975;48.134;11.630;2024-03-29T10:25:18;1.67;;;0.57;;
83103;SDS011;72975;48.134;11.630;2024-03-29T10:27:49;3.35;;;0.75;;
83103;SDS011;72975;48.134;11.630;2024-03-29T10:30:26;1.58;;;0.70;;
83103;SDS011;72975;48.134;11.630;2024-03-29T10:32:58;1.67;;;0.80;;
83103;SDS011;72975;48.134;11.630;2024-03-29T10:35:33;1.75;;;0.50;;
83103;SDS011;72975;48.134;11.630;2024-03-29T10:38:03;1.20;;;0.52;;
83103;SDS011;72975;48.134;11.630;2024-03-29T10:40:41;1.25;;;0.47;;
83103;SDS011;72975;48.134;11.630;2024-03-29T10:43:09;1.65;;;0.70;;
83103;SDS011;72975;48.134;11.630;2024-03-29T10:45:51;2.38;;;0.80;;
83103;SDS011;72975;48.134;11.630;2024-03-29T10:48:32;1.90;;;0.60;;
83103;SDS011;72975;48.134;11.630;2024-03-29T10:51:11;0.50;;;0.32;;
83103;SDS011;72975;48.134;11.630;2024-03-29T10:54:04;1.63;;;0.65;;
83103;SDS011;72975;48.134;11.630;2024-03-29T10:56:35;1.92;;;0.60;;
83103;SDS011;72975;48.134;11.630;2024-03-29T11:01:51;2.20;;;0.60;;
83103;SDS011;72975;48.134;11.630;2024-03-29T11:04:29;2.67;;;0.65;;
83103;SDS011;72975;48.134;11.630;2024-03-29T11:07:15;1.27;;;0.60;;
83103;SDS011;72975;48.134;11.630;2024-03-29T11:09:52;0.60;;;0.40;;
83103;SDS011;72975;48.134;11.630;2024-03-29T11:12:30;2.40;;;0.80;;
83103;SDS011;72975;48.134;11.630;2024-03-29T11:15:08;1.67;;;0.60;;
83103;SDS011;72975;48.134;11.630;2024-03-29T11:17:55;1.75;;;0.50;;
83103;SDS011;72975;48.134;11.630;2024-03-29T11:20:28;1.05;;;0.40;;
83103;SDS011;72975;48.134;11.630;2024-03-29T11:23:04;1.08;;;0.40;;
83103;SDS011;72975;48.134;11.630;2024-03-29T11:25:41;2.15;;;0.70;;
83103;SDS011;72975;48.134;11.630;2024-03-29T11:30:53;1.30;;;0.50;;
83103;SDS011;72975;48.134;11.630;2024-03-29T11:33:25;1.52;;;0.30;;
83103;SDS011;72975;48.134;11.630;2024-03-29T11:35:56;1.77;;;0.30;;
83103;SDS011;72975;48.134;11.630;2024-03-29T11:38:29;0.82;;;0.50;;
83103;SDS011;72975;48.134;11.630;2024-03-29T11:41:22;2.42;;;0.52;;
83103;SDS011;72975;48.134;11.630;2024-03-29T11:43:56;1.77;;;0.55;;
83103;SDS011;72975;48.134;11.630;2024-03-29T11:46:38;1.63;;;0.70;;
83103;SDS011;72975;48.134;11.630;2024-03-29T11:49:14;1.35;;;0.57;;
83103;SDS011;72975;48.134;11.630;2024-03-29T11:51:41;1.42;;;0.52;;
83103;SDS011;72975;48.134;11.630;2024-03-29T11:54:08;1.23;;;0.60;;
83103;SDS011;72975;48.134;11.630;2024-03-29T11:56:35;1.85;;;0.60;;
83103;SDS011;72975;48.134;11.630;2024-03-29T11:59:04;0.85;;;0.47;;
83103;SDS011;72975;48.134;11.630;2024-03-29T12:01:31;1.35;;;0.50;;
83103;SDS011;72975;48.134;11.630;2024-03-29T12:04:02;1.85;;;0.40;;
83103;SDS011;72975;48.134;11.630;2024-03-29T12:06:29;1.75;;;0.43;;
83103;SDS011;72975;48.134;11.630;2024-03-29T12:08:56;1.48;;;0.60;;
83103;SDS011;72975;48.134;11.630;2024-03-29T12:11:23;0.80;;;0.50;;
83103;SDS011;72975;48.134;11.630;2024-03-29T12:13:52;1.00;;;0.40;;
83103;SDS011;72975;48.134;11.630;2024-03-29T12:16:19;1.83;;;0.40;;
83103;SDS011;72975;48.134;11.630;2024-03-29T12:18:46;1.15;;;0.50;;
83103;SDS011;72975;48.134;11.630;2024-03-29T12:21:14;0.95;;;0.43;;
83103;SDS011;72975;48.134;11.630;2024-03-29T12:23:46;0.90;;;0.45;;
83103;SDS011;72975;48.134;11.630;2024-03-29T12:26:15;1.42;;;0.43;;
83103;SDS011;72975;48.134;11.630;2024-03-29T12:28:48;1.58;;;0.65;;
83103;SDS011;72975;48.134;11.630;2024-03-29T12:31:15;1.23;;;0.40;;
83103;SDS011;72975;48.134;11.630;2024-03-29T12:34:00;0.88;;;0.50;;
83103;SDS011;72975;48.134;11.630;2024-03-29T12:36:31;0.70;;;0.32;;
83103;SDS011;72975;48.134;11.630;2024-03-29T12:39:03;0.77;;;0.30;;
83103;SDS011;72975;48.134;11.630;2024-03-29T12:41:31;1.00;;;0.40;;
83103;SDS011;72975;48.134;11.630;2024-03-29T12:44:02;0.75;;;0.30;;
83103;SDS011;72975;48.134;11.630;2024-03-29T12:46:28;0.90;;;0.40;;
83103;SDS011;72975;48.134;11.630;2024-03-29T12:49:10;1.08;;;0.50;;
83103;SDS011;72975;48.134;11.630;2024-03-29T12:51:39;0.90;;;0.40;;
83103;SDS011;72975;48.134;11.630;2024-03-29T12:54:15;1.10;;;0.40;;
83103;SDS011;72975;48.134;11.630;2024-03-29T12:56:47;0.80;;;0.30;;
83103;SDS011;72975;48.134;11.630;2024-03-29T12:59:22;0.38;;;0.30;;
83103;SDS011;72975;48.134;11.630;2024-03-29T13:01:53;0.93;;;0.43;;
83103;SDS011;72975;48.134;11.630;2024-03-29T13:04:22;1.65;;;0.40;;
83103;SDS011;72975;48.134;11.630;2024-03-29T13:06:48;1.00;;;0.40;;
83103;SDS011;72975;48.134;11.630;2024-03-29T13:09:18;0.45;;;0.30;;
83103;SDS011;72975;48.134;11.630;2024-03-29T13:11:54;0.35;;;0.30;;
83103;SDS011;72975;48.134;11.630;2024-03-29T13:14:25;0.95;;;0.30;;
83103;SDS011;72975;48.134;11.630;2024-03-29T13:16:57;0.47;;;0.30;;
83103;SDS011;72975;48.134;11.630;2024-03-29T13:19:24;0.73;;;0.35;;
83103;SDS011;72975;48.134;11.630;2024-03-29T13:21:53;0.77;;;0.30;;
83103;SDS011;72975;48.134;11.630;2024-03-29T13:24:32;0.93;;;0.38;;
83103;SDS011;72975;48.134;11.630;2024-03-29T13:26:59;0.68;;;0.30;;
83103;SDS011;72975;48.134;11.630;2024-03-29T13:29:29;0.60;;;0.30;;
83103;SDS011;72975;48.134;11.630;2024-03-29T13:32:00;0.63;;;0.30;;
83103;SDS011;72975;48.134;11.630;2024-03-29T13:34:29;1.67;;;0.40;;
83103;SDS011;72975;48.134;11.630;2024-03-29T13:37:00;1.38;;;0.57;;
83103;SDS011;72975;48.134;11.630;2024-03-29T13:39:32;1.30;;;0.47;;
83103;SDS011;72975;48.134;11.630;2024-03-29T13:42:02;1.17;;;0.47;;
83103;SDS011;72975;48.134;11.630;2024-03-29T13:44:31;0.95;;;0.40;;
83103;SDS011;72975;48.134;11.630;2024-03-29T13:47:03;0.63;;;0.35;;
83103;SDS011;72975;48.134;11.630;2024-03-29T13:52:00;1.73;;;0.40;;
83103;SDS011;72975;48.134;11.630;2024-03-29T13:54:30;0.90;;;0.45;;
83103;SDS011;72975;48.134;11.630;2024-03-29T13:57:00;1.02;;;0.30;;
83103;SDS011;72975;48.134;11.630;2024-03-29T13:59:32;0.32;;;0.25;;
83103;SDS011;72975;48.134;11.630;2024-03-29T14:02:15;1.98;;;0.52;;
83103;SDS011;72975;48.134;11.630;2024-03-29T14:04:45;1.23;;;0.45;;
83103;SDS011;72975;48.134;11.630;2024-03-29T14:07:20;1.25;;;0.50;;
83103;SDS011;72975;48.134;11.630;2024-03-29T14:09:50;0.95;;;0.40;;
83103;SDS011;72975;48.134;11.630;2024-03-29T14:12:18;0.65;;;0.30;;
83103;SDS011;72975;48.134;11.630;2024-03-29T14:14:55;1.90;;;0.60;;
83103;SDS011;72975;48.134;11.630;2024-03-29T14:17:24;0.90;;;0.35;;
83103;SDS011;72975;48.134;11.630;2024-03-29T14:19:54;1.25;;;0.30;;
83103;SDS011;72975;48.134;11.630;2024-03-29T14:22:26;0.90;;;0.50;;
83103;SDS011;72975;48.134;11.630;2024-03-29T14:25:04;1.27;;;0.52;;
83103;SDS011;72975;48.134;11.630;2024-03-29T14:27:38;0.80;;;0.30;;
83103;SDS011;72975;48.134;11.630;2024-03-29T14:30:13;0.85;;;0.40;;
83103;SDS011;72975;48.134;11.630;2024-03-29T14:32:40;0.75;;;0.38;;
83103;SDS011;72975;48.134;11.630;2024-03-29T14:35:13;1.65;;;0.30;;
83103;SDS011;72975;48.134;11.630;2024-03-29T14:37:44;1.05;;;0.30;;
83103;SDS011;72975;48.134;11.630;2024-03-29T14:40:11;0.60;;;0.40;;
83103;SDS011;72975;48.134;11.630;2024-03-29T14:42:43;0.68;;;0.30;;
83103;SDS011;72975;48.134;11.630;2024-03-29T14:45:12;0.57;;;0.30;;
83103;SDS011;72975;48.134;11.630;2024-03-29T14:47:39;0.25;;;0.20;;
83103;SDS011;72975;48.134;11.630;2024-03-29T14:50:09;1.55;;;0.60;;
83103;SDS011;72975;48.134;11.630;2024-03-29T14:52:41;1.25;;;0.45;;
83103;SDS011;72975;48.134;11.630;2024-03-29T14:55:08;1.08;;;0.45;;
83103;SDS011;72975;48.134;11.630;2024-03-29T14:57:37;0.52;;;0.32;;
83103;SDS011;72975;48.134;11.630;2024-03-29T15:00:05;0.50;;;0.30;;
83103;SDS011;72975;48.134;11.630;2024-03-29T15:02:35;0.68;;;0.30;;
83103;SDS011;72975;48.134;11.630;2024-03-29T15:05:03;1.35;;;0.43;;
83103;SDS011;72975;48.134;11.630;2024-03-29T15:07:33;0.85;;;0.38;;
83103;SDS011;72975;48.134;11.630;2024-03-29T15:10:00;0.60;;;0.30;;
83103;SDS011;72975;48.134;11.630;2024-03-29T15:12:40;1.40;;;0.60;;
83103;SDS011;72975;48.134;11.630;2024-03-29T15:15:11;0.60;;;0.25;;
83103;SDS011;72975;48.134;11.630;2024-03-29T15:17:38;2.90;;;0.52;;
83103;SDS011;72975;48.134;11.630;2024-03-29T15:20:13;0.77;;;0.43;;
83103;SDS011;72975;48.134;11.630;2024-03-29T15:22:55;0.52;;;0.32;;
83103;SDS011;72975;48.134;11.630;2024-03-29T15:25:33;0.85;;;0.43;;
83103;SDS011;72975;48.134;11.630;2024-03-29T15:28:03;1.42;;;0.50;;
83103;SDS011;72975;48.134;11.630;2024-03-29T15:30:41;1.58;;;0.60;;
83103;SDS011;72975;48.134;11.630;2024-03-29T15:33:17;1.20;;;0.40;;
83103;SDS011;72975;48.134;11.630;2024-03-29T15:35:49;1.23;;;0.47;;
83103;SDS011;72975;48.134;11.630;2024-03-29T15:38:15;0.47;;;0.35;;
83103;SDS011;72975;48.134;11.630;2024-03-29T15:43:25;0.82;;;0.28;;
83103;SDS011;72975;48.134;11.630;2024-03-29T15:45:56;1.15;;;0.60;;
83103;SDS011;72975;48.134;11.630;2024-03-29T15:48:32;0.90;;;0.40;;
83103;SDS011;72975;48.134;11.630;2024-03-29T15:51:11;1.15;;;0.52;;
83103;SDS011;72975;48.134;11.630;2024-03-29T15:53:40;0.65;;;0.40;;
83103;SDS011;72975;48.134;11.630;2024-03-29T15:56:11;0.77;;;0.30;;
83103;SDS011;72975;48.134;11.630;2024-03-29T15:58:47;0.75;;;0.40;;
83103;SDS011;72975;48.134;11.630;2024-03-29T16:01:14;0.65;;;0.40;;
83103;SDS011;72975;48.134;11.630;2024-03-29T16:03:46;2.33;;;0.52;;
83103;SDS011;72975;48.134;11.630;2024-03-29T16:06:16;2.10;;;0.60;;
83103;SDS011;72975;48.134;11.630;2024-03-29T16:08:46;2.10;;;0.60;;
83103;SDS011;72975;48.134;11.630;2024-03-29T16:11:16;4.18;;;1.00;;
83103;SDS011;72975;48.134;11.630;2024-03-29T16:13:42;3.15;;;0.70;;
83103;SDS011;72975;48.134;11.630;2024-03-29T16:16:10;1.77;;;0.52;;
83103;SDS011;72975;48.134;11.630;2024-03-29T16:18:43;7.70;;;2.25;;
83103;SDS011;72975;48.134;11.630;2024-03-29T16:21:14;2.78;;;0.80;;
83103;SDS011;72975;48.134;11.630;2024-03-29T16:23:41;4.07;;;0.73;;
83103;SDS011;72975;48.134;11.630;2024-03-29T16:26:13;5.90;;;1.10;;
83103;SDS011;72975;48.134;11.630;2024-03-29T16:28:43;8.98;;;1.42;;
83103;SDS011;72975;48.134;11.630;2024-03-29T16:31:13;8.13;;;1.48;;
83103;SDS011;72975;48.134;11.630;2024-03-29T16:33:43;6.50;;;1.30;;
83103;SDS011;72975;48.134;11.630;2024-03-29T16:36:16;10.27;;;1.80;;
83103;SDS011;72975;48.134;11.630;2024-03-29T16:38:45;8.80;;;2.85;;
83103;SDS011;72975;48.134;11.630;2024-03-29T16:41:15;13.52;;;2.70;;
83103;SDS011;72975;48.134;11.630;2024-03-29T16:43:53;13.57;;;2.55;;
83103;SDS011;72975;48.134;11.630;2024-03-29T16:46:22;12.32;;;1.92;;
83103;SDS011;72975;48.134;11.630;2024-03-29T16:48:53;22.45;;;3.08;;
83103;SDS011;72975;48.134;11.630;2024-03-29T16:51:20;15.05;;;2.95;;
83103;SDS011;72975;48.134;11.630;2024-03-29T16:53:50;14.60;;;2.80;;
83103;SDS011;72975;48.134;11.630;2024-03-29T16:56:19;17.23;;;3.33;;
83103;SDS011;72975;48.134;11.630;2024-03-29T16:58:46;15.15;;;2.40;;
83103;SDS011;72975;48.134;11.630;2024-03-29T17:01:19;17.23;;;2.13;;
83103;SDS011;72975;48.134;11.630;2024-03-29T17:03:45;11.40;;;2.15;;
83103;SDS011;72975;48.134;11.630;2024-03-29T17:06:12;16.00;;;3.67;;
83103;SDS011;72975;48.134;11.630;2024-03-29T17:08:39;19.20;;;2.85;;
83103;SDS011;72975;48.134;11.630;2024-03-29T17:11:16;16.15;;;2.38;;
83103;SDS011;72975;48.134;11.630;2024-03-29T17:13:47;15.02;;;2.30;;
83103;SDS011;72975;48.134;11.630;2024-03-29T17:16:17;15.93;;;2.08;;
83103;SDS011;72975;48.134;11.630;2024-03-29T17:18:44;23.30;;;2.83;;
83103;SDS011;72975;48.134;11.630;2024-03-29T17:21:14;11.55;;;1.55;;
83103;SDS011;72975;48.134;11.630;2024-03-29T17:23:46;15.95;;;2.50;;
83103;SDS011;72975;48.134;11.630;2024-03-29T17:28:52;13.10;;;3.20;;
83103;SDS011;72975;48.134;11.630;2024-03-29T17:31:23;15.95;;;2.65;;
83103;SDS011;72975;48.134;11.630;2024-03-29T17:34:02;19.60;;;2.75;;
83103;SDS011;72975;48.134;11.630;2024-03-29T17:36:44;18.27;;;3.75;;
83103;SDS011;72975;48.134;11.630;2024-03-29T17:39:22;22.98;;;2.72;;
83103;SDS011;72975;48.134;11.630;2024-03-29T17:42:00;18.60;;;3.17;;
83103;SDS011;72975;48.134;11.630;2024-03-29T17:44:36;14.52;;;2.85;;
83103;SDS011;72975;48.134;11.630;2024-03-29T17:47:10;18.15;;;2.75;;
83103;SDS011;72975;48.134;11.630;2024-03-29T17:49:40;18.73;;;2.80;;
83103;SDS011;72975;48.134;11.630;2024-03-29T17:52:25;10.82;;;2.28;;
83103;SDS011;72975;48.134;11.630;2024-03-29T17:55:02;14.82;;;2.55;;
83103;SDS011;72975;48.134;11.630;2024-03-29T17:57:47;10.63;;;2.30;;
83103;SDS011;72975;48.134;11.630;2024-03-29T18:00:23;22.80;;;2.88;;
83103;SDS011;72975;48.134;11.630;2024-03-29T18:02:58;16.60;;;2.75;;
83103;SDS011;72975;48.134;11.630;2024-03-29T18:05:25;15.45;;;2.55;;
83103;SDS011;72975;48.134;11.630;2024-03-29T18:07:52;15.63;;;3.05;;
83103;SDS011;72975;48.134;11.630;2024-03-29T18:10:20;22.13;;;3.17;;
83103;SDS011;72975;48.134;11.630;2024-03-29T18:12:50;23.02;;;3.38;;
83103;SDS011;72975;48.134;11.630;2024-03-29T18:15:22;24.33;;;3.55;;
83103;SDS011;72975;48.134;11.630;2024-03-29T18:17:54;26.92;;;4.25;;
83103;SDS011;72975;48.134;11.630;2024-03-29T18:20:30;28.63;;;4.32;;
83103;SDS011;72975;48.134;11.630;2024-03-29T18:23:01;27.60;;;4.72;;
83103;SDS011;72975;48.134;11.630;2024-03-29T18:28:43;28.50;;;3.95;;
83103;SDS011;72975;48.134;11.630;2024-03-29T18:31:12;26.20;;;4.95;;
83103;SDS011;72975;48.134;11.630;2024-03-29T18:33:46;28.42;;;5.32;;
83103;SDS011;72975;48.134;11.630;2024-03-29T18:36:24;32.58;;;4.28;;
83103;SDS011;72975;48.134;11.630;2024-03-29T18:38:51;30.13;;;5.85;;
83103;SDS011;72975;48.134;11.630;2024-03-29T18:41:20;39.22;;;5.50;;
83103;SDS011;72975;48.134;11.630;2024-03-29T18:43:49;36.80;;;5.53;;
83103;SDS011;72975;48.134;11.630;2024-03-29T18:46:16;31.00;;;6.55;;
83103;SDS011;72975;48.134;11.630;2024-03-29T18:48:43;44.15;;;5.35;;
83103;SDS011;72975;48.134;11.630;2024-03-29T18:51:13;43.97;;;6.07;;
83103;SDS011;72975;48.134;11.630;2024-03-29T18:53:40;43.70;;;6.32;;
83103;SDS011;72975;48.134;11.630;2024-03-29T18:56:09;40.00;;;7.13;;
83103;SDS011;72975;48.134;11.630;2024-03-29T18:58:36;40.38;;;5.93;;
83103;SDS011;72975;48.134;11.630;2024-03-29T19:01:05;40.42;;;6.90;;
83103;SDS011;72975;48.134;11.630;2024-03-29T19:03:35;51.05;;;6.45;;
83103;SDS011;72975;48.134;11.630;2024-03-29T19:06:03;42.67;;;7.82;;
83103;SDS011;72975;48.134;11.630;2024-03-29T19:08:32;47.97;;;7.10;;
83103;SDS011;72975;48.134;11.630;2024-03-29T19:11:01;49.38;;;6.78;;
83103;SDS011;72975;48.134;11.630;2024-03-29T19:13:28;50.08;;;7.28;;
83103;SDS011;72975;48.134;11.630;2024-03-29T19:15:55;42.97;;;7.57;;
83103;SDS011;72975;48.134;11.630;2024-03-29T19:18:22;62.67;;;10.70;;
83103;SDS011;72975;48.134;11.630;2024-03-29T19:20:49;49.92;;;7.22;;
83103;SDS011;72975;48.134;11.630;2024-03-29T19:23:15;59.53;;;8.25;;
83103;SDS011;72975;48.134;11.630;2024-03-29T19:25:42;42.78;;;7.20;;
83103;SDS011;72975;48.134;11.630;2024-03-29T19:28:09;49.33;;;7.68;;
83103;SDS011;72975;48.134;11.630;2024-03-29T19:30:36;48.72;;;8.30;;
83103;SDS011;72975;48.134;11.630;2024-03-29T19:33:03;49.33;;;10.07;;
83103;SDS011;72975;48.134;11.630;2024-03-29T19:35:30;52.78;;;8.05;;
83103;SDS011;72975;48.134;11.630;2024-03-29T19:37:58;61.80;;;8.82;;
83103;SDS011;72975;48.134;11.630;2024-03-29T19:40:25;46.80;;;8.18;;
83103;SDS011;72975;48.134;11.630;2024-03-29T19:42:52;50.20;;;6.82;;
83103;SDS011;72975;48.134;11.630;2024-03-29T19:45:19;54.10;;;7.57;;
83103;SDS011;72975;48.134;11.630;2024-03-29T19:47:46;65.43;;;9.57;;
83103;SDS011;72975;48.134;11.630;2024-03-29T19:50:22;54.95;;;8.23;;
83103;SDS011;72975;48.134;11.630;2024-03-29T19:52:49;57.25;;;9.38;;
83103;SDS011;72975;48.134;11.630;2024-03-29T19:55:16;54.75;;;8.20;;
83103;SDS011;72975;48.134;11.630;2024-03-29T19:57:45;53.20;;;8.70;;
83103;SDS011;72975;48.134;11.630;2024-03-29T20:00:12;63.22;;;7.13;;
83103;SDS011;72975;48.134;11.630;2024-03-29T20:02:39;51.60;;;8.77;;
83103;SDS011;72975;48.134;11.630;2024-03-29T20:05:09;63.20;;;9.07;;
83103;SDS011;72975;48.134;11.630;2024-03-29T20:07:36;53.75;;;9.07;;
83103;SDS011;72975;48.134;11.630;2024-03-29T20:10:03;58.40;;;9.88;;
83103;SDS011;72975;48.134;11.630;2024-03-29T20:12:33;59.90;;;8.82;;
83103;SDS011;72975;48.134;11.630;2024-03-29T20:15:00;65.53;;;9.38;;
83103;SDS011;72975;48.134;11.630;2024-03-29T20:17:28;64.68;;;8.90;;
83103;SDS011;72975;48.134;11.630;2024-03-29T20:19:55;55.47;;;9.70;;
83103;SDS011;72975;48.134;11.630;2024-03-29T20:22:27;67.25;;;10.05;;
83103;SDS011;72975;48.134;11.630;2024-03-29T20:24:54;52.65;;;10.65;;
83103;SDS011;72975;48.134;11.630;2024-03-29T20:27:21;54.75;;;10.02;;
83103;SDS011;72975;48.134;11.630;2024-03-29T20:29:50;64.93;;;9.13;;
83103;SDS011;72975;48.134;11.630;2024-03-29T20:32:20;66.30;;;11.70;;
83103;SDS011;72975;48.134;11.630;2024-03-29T20:34:47;74.28;;;11.20;;
83103;SDS011;72975;48.134;11.630;2024-03-29T20:37:18;63.65;;;9.77;;
83103;SDS011;72975;48.134;11.630;2024-03-29T20:39:50;71.97;;;10.90;;
83103;SDS011;72975;48.134;11.630;2024-03-29T20:42:17;76.30;;;11.68;;
83103;SDS011;72975;48.134;11.630;2024-03-29T20:44:48;62.60;;;8.52;;
83103;SDS011;72975;48.134;11.630;2024-03-29T20:47:15;63.22;;;11.05;;
83103;SDS011;72975;48.134;11.630;2024-03-29T20:49:48;72.03;;;11.40;;
83103;SDS011;72975;48.134;11.630;2024-03-29T20:52:15;60.38;;;9.57;;
83103;SDS011;72975;48.134;11.630;2024-03-29T20:54:44;53.72;;;10.25;;
83103;SDS011;72975;48.134;11.630;2024-03-29T20:57:14;69.05;;;11.88;;
83103;SDS011;72975;48.134;11.630;2024-03-29T20:59:44;65.50;;;11.05;;
83103;SDS011;72975;48.134;11.630;2024-03-29T21:02:11;74.70;;;10.88;;
83103;SDS011;72975;48.134;11.630;2024-03-29T21:04:56;73.50;;;11.65;;
83103;SDS011;72975;48.134;11.630;2024-03-29T21:07:42;81.55;;;12.65;;
83103;SDS011;72975;48.134;11.630;2024-03-29T21:10:11;73.35;;;10.13;;
83103;SDS011;72975;48.134;11.630;2024-03-29T21:12:40;65.10;;;11.77;;
83103;SDS011;72975;48.134;11.630;2024-03-29T21:15:08;69.45;;;10.23;;
83103;SDS011;72975;48.134;11.630;2024-03-29T21:17:35;69.32;;;11.50;;
83103;SDS011;72975;48.134;11.630;2024-03-29T21:20:06;63.28;;;9.55;;
83103;SDS011;72975;48.134;11.630;2024-03-29T21:22:36;71.93;;;10.68;;
83103;SDS011;72975;48.134;11.630;2024-03-29T21:25:07;70.30;;;11.90;;
83103;SDS011;72975;48.134;11.630;2024-03-29T21:27:35;71.00;;;12.32;;
83103;SDS011;72975;48.134;11.630;2024-03-29T21:30:05;64.53;;;10.52;;
83103;SDS011;72975;48.134;11.630;2024-03-29T21:32:42;62.25;;;11.88;;
83103;SDS011;72975;48.134;11.630;2024-03-29T21:35:10;69.10;;;11.38;;
83103;SDS011;72975;48.134;11.630;2024-03-29T21:37:37;70.90;;;13.00;;
83103;SDS011;72975;48.134;11.630;2024-03-29T21:40:07;75.57;;;11.68;;
83103;SDS011;72975;48.134;11.630;2024-03-29T21:42:35;73.50;;;11.80;;
83103;SDS011;72975;48.134;11.630;2024-03-29T21:45:02;66.07;;;11.15;;
83103;SDS011;72975;48.134;11.630;2024-03-29T21:47:38;89.43;;;11.95;;
83103;SDS011;72975;48.134;11.630;2024-03-29T21:50:05;71.97;;;13.30;;
83103;SDS011;72975;48.134;11.630;2024-03-29T21:52:32;70.15;;;11.88;;
83103;SDS011;72975;48.134;11.630;2024-03-29T21:55:01;73.13;;;11.82;;
83103;SDS011;72975;48.134;11.630;2024-03-29T21:57:29;82.22;;;11.93;;
83103;SDS011;72975;48.134;11.630;2024-03-29T22:00:01;74.13;;;11.48;;
83103;SDS011;72975;48.134;11.630;2024-03-29T22:02:29;69.63;;;11.43;;
83103;SDS011;72975;48.134;11.630;2024-03-29T22:04:57;73.03;;;12.77;;
83103;SDS011;72975;48.134;11.630;2024-03-29T22:07:24;76.50;;;11.10;;
83103;SDS011;72975;48.134;11.630;2024-03-29T22:09:52;71.15;;;12.32;;
83103;SDS011;72975;48.134;11.630;2024-03-29T22:12:18;73.82;;;12.65;;
83103;SDS011;72975;48.134;11.630;2024-03-29T22:14:45;62.92;;;9.65;;
83103;SDS011;72975;48.134;11.630;2024-03-29T22:17:12;70.32;;;11.52;;
83103;SDS011;72975;48.134;11.630;2024-03-29T22:19:39;61.30;;;8.40;;
83103;SDS011;72975;48.134;11.630;2024-03-29T22:22:08;62.90;;;11.10;;
83103;SDS011;72975;48.134;11.630;2024-03-29T22:24:41;78.55;;;12.15;;
83103;SDS011;72975;48.134;11.630;2024-03-29T22:27:10;68.68;;;11.23;;
83103;SDS011;72975;48.134;11.630;2024-03-29T22:29:40;78.50;;;13.80;;
83103;SDS011;72975;48.134;11.630;2024-03-29T22:32:10;65.43;;;12.63;;
83103;SDS011;72975;48.134;11.630;2024-03-29T22:34:39;73.90;;;10.13;;
83103;SDS011;72975;48.134;11.630;2024-03-29T22:37:07;71.70;;;10.35;;
83103;SDS011;72975;48.134;11.630;2024-03-29T22:39:34;74.03;;;10.38;;
83103;SDS011;72975;48.134;11.630;2024-03-29T22:42:01;63.67;;;10.82;;
83103;SDS011;72975;48.134;11.630;2024-03-29T22:44:29;69.25;;;9.80;;
83103;SDS011;72975;48.134;11.630;2024-03-29T22:46:56;70.50;;;10.48;;
83103;SDS011;72975;48.134;11.630;2024-03-29T22:49:23;71.40;;;12.73;;
83103;SDS011;72975;48.134;11.630;2024-03-29T22:51:50;71.43;;;11.93;;
83103;SDS011;72975;48.134;11.630;2024-03-29T22:54:17;66.80;;;11.00;;
83103;SDS011;72975;48.134;11.630;2024-03-29T22:56:43;60.20;;;8.95;;
83103;SDS011;72975;48.134;11.630;2024-03-29T22:59:12;76.53;;;11.80;;
83103;SDS011;72975;48.134;11.630;2024-03-29T23:01:40;76.63;;;11.82;;
83103;SDS011;72975;48.134;11.630;2024-03-29T23:04:12;52.15;;;10.80;;
83103;SDS011;72975;48.134;11.630;2024-03-29T23:06:41;62.53;;;10.13;;
83103;SDS011;72975;48.134;11.630;2024-03-29T23:09:09;79.00;;;14.65;;
83103;SDS011;72975;48.134;11.630;2024-03-29T23:11:36;68.20;;;10.23;;
83103;SDS011;72975;48.134;11.630;2024-03-29T23:14:03;64.28;;;11.02;;
83103;SDS011;72975;48.134;11.630;2024-03-29T23:16:29;80.88;;;11.13;;
83103;SDS011;72975;48.134;11.630;2024-03-29T23:18:59;76.00;;;11.73;;
83103;SDS011;72975;48.134;11.630;2024-03-29T23:21:26;57.85;;;10.43;;
83103;SDS011;72975;48.134;11.630;2024-03-29T23:23:53;61.47;;;12.30;;
83103;SDS011;72975;48.134;11.630;2024-03-29T23:26:20;69.72;;;11.90;;
83103;SDS011;72975;48.134;11.630;2024-03-29T23:28:46;61.92;;;10.82;;
83103;SDS011;72975;48.134;11.630;2024-03-29T23:31:13;61.50;;;9.23;;
83103;SDS011;72975;48.134;11.630;2024-03-29T23:33:40;68.95;;;11.13;;
83103;SDS011;72975;48.134;11.630;2024-03-29T23:36:07;65.60;;;10.85;;
83103;SDS011;72975;48.134;11.630;2024-03-29T23:38:34;59.20;;;9.63;;
83103;SDS011;72975;48.134;11.630;2024-03-29T23:41:02;49.63;;;8.18;;
83103;SDS011;72975;48.134;11.630;2024-03-29T23:43:32;64.10;;;8.35;;
83103;SDS011;72975;48.134;11.630;2024-03-29T23:46:05;57.38;;;9.13;;
83103;SDS011;72975;48.134;11.630;2024-03-29T23:48:37;63.30;;;9.43;;
83103;SDS011;72975;48.134;11.630;2024-03-29T23:51:04;65.07;;;9.57;;
83103;SDS011;72975;48.134;11.630;2024-03-29T23:53:31;68.35;;;9.63;;
83103;SDS011;72975;48.134;11.630;2024-03-29T23:56:00;57.78;;;11.88;;
83103;SDS011;72975;48.134;11.630;2024-03-29T23:58:30;55.13;;;8.68;;
